sensor_id;sensor_type;location;lat;lon;timestamp;temperature;humidity
1948;DHT22;974;52.400;9.818;2022-12-07T00:01:18;4.50;99.90
1948;DHT22;974;52.400;9.818;2022-12-07T00:03:45;4.50;99.90
1948;DHT22;974;52.400;9.818;2022-12-07T00:06:14;4.60;99.90
1948;DHT22;974;52.400;9.818;2022-12-07T00:08:40;4.50;99.90
1948;DHT22;974;52.400;9.818;2022-12-07T00:11:14;4.50;99.90
1948;DHT22;974;52.400;9.818;2022-12-07T00:13:40;4.60;99.90
1948;DHT22;974;52.400;9.818;2022-12-07T00:16:17;4.60;99.90
1948;DHT22;974;52.400;9.818;2022-12-07T00:18:43;4.60;99.90
1948;DHT22;974;52.400;9.818;2022-12-07T00:21:11;4.60;99.90
1948;DHT22;974;52.400;9.818;2022-12-07T00:23:37;4.60;99.90
1948;DHT22;974;52.400;9.818;2022-12-07T00:26:17;4.60;99.90
1948;DHT22;974;52.400;9.818;2022-12-07T00:28:51;4.70;99.90
1948;DHT22;974;52.400;9.818;2022-12-07T00:31:19;4.70;99.90
1948;DHT22;974;52.400;9.818;2022-12-07T00:33:45;4.80;99.90
1948;DHT22;974;52.400;9.818;2022-12-07T00:36:13;4.80;99.90
1948;DHT22;974;52.400;9.818;2022-12-07T00:38:39;4.70;99.90
1948;DHT22;974;52.400;9.818;2022-12-07T00:41:09;4.80;99.90
1948;DHT22;974;52.400;9.818;2022-12-07T00:43:34;4.80;99.90
1948;DHT22;974;52.400;9.818;2022-12-07T00:46:00;4.80;99.90
1948;DHT22;974;52.400;9.818;2022-12-07T00:48:25;4.80;99.90
1948;DHT22;974;52.400;9.818;2022-12-07T00:50:51;4.70;99.90
1948;DHT22;974;52.400;9.818;2022-12-07T00:53:17;4.80;99.90
1948;DHT22;974;52.400;9.818;2022-12-07T00:55:43;4.80;99.90
1948;DHT22;974;52.400;9.818;2022-12-07T00:58:09;4.90;99.90
1948;DHT22;974;52.400;9.818;2022-12-07T01:00:39;4.90;99.90
1948;DHT22;974;52.400;9.818;2022-12-07T01:03:06;4.80;99.90
1948;DHT22;974;52.400;9.818;2022-12-07T01:05:32;4.70;99.90
1948;DHT22;974;52.400;9.818;2022-12-07T01:07:58;4.80;99.90
1948;DHT22;974;52.400;9.818;2022-12-07T01:10:23;4.70;99.90
1948;DHT22;974;52.400;9.818;2022-12-07T01:12:49;4.80;99.90
1948;DHT22;974;52.400;9.818;2022-12-07T01:15:14;4.80;99.90
1948;DHT22;974;52.400;9.818;2022-12-07T01:17:40;4.80;99.90
1948;DHT22;974;52.400;9.818;2022-12-07T01:20:06;4.70;99.90
1948;DHT22;974;52.400;9.818;2022-12-07T01:22:39;4.70;99.90
1948;DHT22;974;52.400;9.818;2022-12-07T01:25:07;4.80;99.90
1948;DHT22;974;52.400;9.818;2022-12-07T01:27:33;4.80;99.90
1948;DHT22;974;52.400;9.818;2022-12-07T01:30:00;4.80;99.90
1948;DHT22;974;52.400;9.818;2022-12-07T01:32:26;4.70;99.90
1948;DHT22;974;52.400;9.818;2022-12-07T01:34:51;4.80;99.90
1948;DHT22;974;52.400;9.818;2022-12-07T01:37:17;4.70;99.90
1948;DHT22;974;52.400;9.818;2022-12-07T01:39:42;4.80;99.90
1948;DHT22;974;52.400;9.818;2022-12-07T01:42:11;4.90;99.90
1948;DHT22;974;52.400;9.818;2022-12-07T01:47:41;4.90;99.90
1948;DHT22;974;52.400;9.818;2022-12-07T01:50:08;4.90;99.90
1948;DHT22;974;52.400;9.818;2022-12-07T01:52:35;4.90;99.90
1948;DHT22;974;52.400;9.818;2022-12-07T01:55:06;4.80;99.90
1948;DHT22;974;52.400;9.818;2022-12-07T01:57:34;4.90;99.90
1948;DHT22;974;52.400;9.818;2022-12-07T02:00:00;4.80;99.90
1948;DHT22;974;52.400;9.818;2022-12-07T02:02:29;4.90;99.90
1948;DHT22;974;52.400;9.818;2022-12-07T02:04:57;4.80;99.90
1948;DHT22;974;52.400;9.818;2022-12-07T02:07:24;4.80;99.90
1948;DHT22;974;52.400;9.818;2022-12-07T02:09:50;4.70;99.90
1948;DHT22;974;52.400;9.818;2022-12-07T02:12:16;4.70;99.90
1948;DHT22;974;52.400;9.818;2022-12-07T02:14:42;4.60;99.90
1948;DHT22;974;52.400;9.818;2022-12-07T02:30:31;4.60;99.90
1948;DHT22;974;52.400;9.818;2022-12-07T02:33:04;4.60;99.90
1948;DHT22;974;52.400;9.818;2022-12-07T02:35:39;4.60;99.90
1948;DHT22;974;52.400;9.818;2022-12-07T02:38:26;4.50;99.90
1948;DHT22;974;52.400;9.818;2022-12-07T02:43:30;4.40;99.90
1948;DHT22;974;52.400;9.818;2022-12-07T02:46:08;4.50;99.90
1948;DHT22;974;52.400;9.818;2022-12-07T02:48:37;4.40;99.90
1948;DHT22;974;52.400;9.818;2022-12-07T02:51:03;4.40;99.90
1948;DHT22;974;52.400;9.818;2022-12-07T03:07:29;4.50;99.90
1948;DHT22;974;52.400;9.818;2022-12-07T03:16:02;4.50;99.90
1948;DHT22;974;52.400;9.818;2022-12-07T03:18:34;4.60;99.90
1948;DHT22;974;52.400;9.818;2022-12-07T03:21:05;4.60;99.90
1948;DHT22;974;52.400;9.818;2022-12-07T03:23:34;4.60;99.90
1948;DHT22;974;52.400;9.818;2022-12-07T03:26:01;4.60;99.90
1948;DHT22;974;52.400;9.818;2022-12-07T03:28:35;4.50;99.90
1948;DHT22;974;52.400;9.818;2022-12-07T03:31:08;4.50;99.90
1948;DHT22;974;52.400;9.818;2022-12-07T03:33:47;4.50;99.90
1948;DHT22;974;52.400;9.818;2022-12-07T03:36:24;4.40;99.90
1948;DHT22;974;52.400;9.818;2022-12-07T03:39:07;4.30;99.90
1948;DHT22;974;52.400;9.818;2022-12-07T03:41:37;4.30;99.90
1948;DHT22;974;52.400;9.818;2022-12-07T03:44:04;4.40;99.90
1948;DHT22;974;52.400;9.818;2022-12-07T03:49:37;4.30;99.90
1948;DHT22;974;52.400;9.818;2022-12-07T03:52:40;4.40;99.90
1948;DHT22;974;52.400;9.818;2022-12-07T03:55:17;4.40;99.90
1948;DHT22;974;52.400;9.818;2022-12-07T03:57:46;4.40;99.90
1948;DHT22;974;52.400;9.818;2022-12-07T04:00:13;4.30;99.90
1948;DHT22;974;52.400;9.818;2022-12-07T04:02:39;4.30;99.90
1948;DHT22;974;52.400;9.818;2022-12-07T04:05:05;4.40;99.90
1948;DHT22;974;52.400;9.818;2022-12-07T04:07:31;4.30;99.90
1948;DHT22;974;52.400;9.818;2022-12-07T04:09:57;4.30;99.90
1948;DHT22;974;52.400;9.818;2022-12-07T04:12:22;4.30;99.90
1948;DHT22;974;52.400;9.818;2022-12-07T04:14:48;4.30;99.90
1948;DHT22;974;52.400;9.818;2022-12-07T04:17:14;4.30;99.90
1948;DHT22;974;52.400;9.818;2022-12-07T04:19:39;4.30;99.90
1948;DHT22;974;52.400;9.818;2022-12-07T04:22:06;4.30;99.90
1948;DHT22;974;52.400;9.818;2022-12-07T04:24:32;4.30;99.90
1948;DHT22;974;52.400;9.818;2022-12-07T04:26:58;4.30;99.90
1948;DHT22;974;52.400;9.818;2022-12-07T04:29:24;4.30;99.90
1948;DHT22;974;52.400;9.818;2022-12-07T04:31:50;4.30;99.90
1948;DHT22;974;52.400;9.818;2022-12-07T04:34:16;4.30;99.90
1948;DHT22;974;52.400;9.818;2022-12-07T04:36:42;4.20;99.90
1948;DHT22;974;52.400;9.818;2022-12-07T04:39:18;4.40;99.90
1948;DHT22;974;52.400;9.818;2022-12-07T04:41:44;4.30;99.90
1948;DHT22;974;52.400;9.818;2022-12-07T04:44:09;4.30;99.90
1948;DHT22;974;52.400;9.818;2022-12-07T04:46:36;4.40;99.90
1948;DHT22;974;52.400;9.818;2022-12-07T04:49:01;4.30;99.90
1948;DHT22;974;52.400;9.818;2022-12-07T04:51:28;4.40;99.90
1948;DHT22;974;52.400;9.818;2022-12-07T04:53:55;4.30;99.90
1948;DHT22;974;52.400;9.818;2022-12-07T04:56:21;4.30;99.90
1948;DHT22;974;52.400;9.818;2022-12-07T04:58:48;4.30;99.90
1948;DHT22;974;52.400;9.818;2022-12-07T05:01:16;4.40;99.90
1948;DHT22;974;52.400;9.818;2022-12-07T05:03:42;4.40;99.90
1948;DHT22;974;52.400;9.818;2022-12-07T05:06:08;4.30;99.90
1948;DHT22;974;52.400;9.818;2022-12-07T05:08:34;4.30;99.90
1948;DHT22;974;52.400;9.818;2022-12-07T05:11:00;4.30;99.90
1948;DHT22;974;52.400;9.818;2022-12-07T05:13:26;4.30;99.90
1948;DHT22;974;52.400;9.818;2022-12-07T05:15:51;4.20;99.90
1948;DHT22;974;52.400;9.818;2022-12-07T05:18:17;4.20;99.90
1948;DHT22;974;52.400;9.818;2022-12-07T05:20:43;4.20;99.90
1948;DHT22;974;52.400;9.818;2022-12-07T05:23:09;4.20;99.90
1948;DHT22;974;52.400;9.818;2022-12-07T05:25:35;4.30;99.90
1948;DHT22;974;52.400;9.818;2022-12-07T05:28:01;4.30;99.90
1948;DHT22;974;52.400;9.818;2022-12-07T05:30:27;4.20;99.90
1948;DHT22;974;52.400;9.818;2022-12-07T05:32:52;4.10;99.90
1948;DHT22;974;52.400;9.818;2022-12-07T05:35:18;4.10;99.90
1948;DHT22;974;52.400;9.818;2022-12-07T05:37:44;4.20;99.90
1948;DHT22;974;52.400;9.818;2022-12-07T05:40:10;4.20;99.90
1948;DHT22;974;52.400;9.818;2022-12-07T05:42:36;4.20;99.90
1948;DHT22;974;52.400;9.818;2022-12-07T05:45:02;4.20;99.90
1948;DHT22;974;52.400;9.818;2022-12-07T05:47:28;3.70;99.90
1948;DHT22;974;52.400;9.818;2022-12-07T05:49:53;4.20;99.90
1948;DHT22;974;52.400;9.818;2022-12-07T05:52:19;4.10;99.90
1948;DHT22;974;52.400;9.818;2022-12-07T05:54:44;4.30;99.90
1948;DHT22;974;52.400;9.818;2022-12-07T05:57:10;4.30;99.90
1948;DHT22;974;52.400;9.818;2022-12-07T05:59:36;4.10;99.90
1948;DHT22;974;52.400;9.818;2022-12-07T06:02:10;4.20;99.90
1948;DHT22;974;52.400;9.818;2022-12-07T06:04:38;4.20;99.90
1948;DHT22;974;52.400;9.818;2022-12-07T06:07:05;4.20;99.90
1948;DHT22;974;52.400;9.818;2022-12-07T06:09:32;4.20;99.90
1948;DHT22;974;52.400;9.818;2022-12-07T06:11:57;4.20;99.90
1948;DHT22;974;52.400;9.818;2022-12-07T06:14:42;4.10;99.90
1948;DHT22;974;52.400;9.818;2022-12-07T06:17:08;4.10;99.90
1948;DHT22;974;52.400;9.818;2022-12-07T06:19:34;4.00;99.90
1948;DHT22;974;52.400;9.818;2022-12-07T06:22:01;3.90;99.90
1948;DHT22;974;52.400;9.818;2022-12-07T06:24:26;3.90;99.90
1948;DHT22;974;52.400;9.818;2022-12-07T06:26:52;4.00;99.90
1948;DHT22;974;52.400;9.818;2022-12-07T06:29:18;3.90;99.90
1948;DHT22;974;52.400;9.818;2022-12-07T06:31:44;4.00;99.90
1948;DHT22;974;52.400;9.818;2022-12-07T06:34:12;4.00;99.90
1948;DHT22;974;52.400;9.818;2022-12-07T06:36:39;3.90;99.90
1948;DHT22;974;52.400;9.818;2022-12-07T06:39:05;4.00;99.90
1948;DHT22;974;52.400;9.818;2022-12-07T06:41:31;4.10;99.90
1948;DHT22;974;52.400;9.818;2022-12-07T06:43:57;4.00;99.90
1948;DHT22;974;52.400;9.818;2022-12-07T06:46:23;4.00;99.90
1948;DHT22;974;52.400;9.818;2022-12-07T06:48:49;4.10;99.90
1948;DHT22;974;52.400;9.818;2022-12-07T06:51:15;4.10;99.90
1948;DHT22;974;52.400;9.818;2022-12-07T06:53:41;4.10;99.90
1948;DHT22;974;52.400;9.818;2022-12-07T06:56:06;4.00;99.90
1948;DHT22;974;52.400;9.818;2022-12-07T06:58:32;4.10;99.90
1948;DHT22;974;52.400;9.818;2022-12-07T07:00:58;3.40;99.90
1948;DHT22;974;52.400;9.818;2022-12-07T07:03:24;4.00;99.90
1948;DHT22;974;52.400;9.818;2022-12-07T07:05:49;3.90;99.90
1948;DHT22;974;52.400;9.818;2022-12-07T07:08:15;4.00;99.90
1948;DHT22;974;52.400;9.818;2022-12-07T07:10:41;3.80;99.90
1948;DHT22;974;52.400;9.818;2022-12-07T07:13:07;3.80;99.90
1948;DHT22;974;52.400;9.818;2022-12-07T07:15:33;3.80;99.90
1948;DHT22;974;52.400;9.818;2022-12-07T07:18:00;3.70;99.90
1948;DHT22;974;52.400;9.818;2022-12-07T07:20:25;3.90;99.90
1948;DHT22;974;52.400;9.818;2022-12-07T07:22:54;4.00;99.90
1948;DHT22;974;52.400;9.818;2022-12-07T07:25:19;4.00;99.90
1948;DHT22;974;52.400;9.818;2022-12-07T07:27:45;4.00;99.90
1948;DHT22;974;52.400;9.818;2022-12-07T07:30:11;3.90;99.90
1948;DHT22;974;52.400;9.818;2022-12-07T07:32:36;4.00;99.90
1948;DHT22;974;52.400;9.818;2022-12-07T07:35:02;4.00;99.90
1948;DHT22;974;52.400;9.818;2022-12-07T07:37:28;3.90;99.90
1948;DHT22;974;52.400;9.818;2022-12-07T07:39:53;3.90;99.90
1948;DHT22;974;52.400;9.818;2022-12-07T07:42:19;4.00;99.90
1948;DHT22;974;52.400;9.818;2022-12-07T07:44:45;3.90;99.90
1948;DHT22;974;52.400;9.818;2022-12-07T07:47:10;3.90;99.90
1948;DHT22;974;52.400;9.818;2022-12-07T07:49:36;4.00;99.90
1948;DHT22;974;52.400;9.818;2022-12-07T07:52:02;4.10;99.90
1948;DHT22;974;52.400;9.818;2022-12-07T07:54:27;4.00;99.90
1948;DHT22;974;52.400;9.818;2022-12-07T07:56:53;4.20;99.90
1948;DHT22;974;52.400;9.818;2022-12-07T07:59:18;4.20;99.90
1948;DHT22;974;52.400;9.818;2022-12-07T08:01:44;4.20;99.90
1948;DHT22;974;52.400;9.818;2022-12-07T08:04:10;4.00;99.90
1948;DHT22;974;52.400;9.818;2022-12-07T08:06:35;4.10;99.90
1948;DHT22;974;52.400;9.818;2022-12-07T08:09:02;4.00;99.90
1948;DHT22;974;52.400;9.818;2022-12-07T08:11:27;4.00;99.90
1948;DHT22;974;52.400;9.818;2022-12-07T08:13:53;3.90;99.90
1948;DHT22;974;52.400;9.818;2022-12-07T08:16:18;3.90;99.90
1948;DHT22;974;52.400;9.818;2022-12-07T08:18:44;4.10;99.90
1948;DHT22;974;52.400;9.818;2022-12-07T08:21:12;4.20;99.90
1948;DHT22;974;52.400;9.818;2022-12-07T08:23:38;4.10;99.90
1948;DHT22;974;52.400;9.818;2022-12-07T08:26:09;4.10;99.90
1948;DHT22;974;52.400;9.818;2022-12-07T08:28:35;4.10;99.90
1948;DHT22;974;52.400;9.818;2022-12-07T08:31:04;4.10;99.90
1948;DHT22;974;52.400;9.818;2022-12-07T08:33:30;4.20;99.90
1948;DHT22;974;52.400;9.818;2022-12-07T08:36:01;4.30;99.90
1948;DHT22;974;52.400;9.818;2022-12-07T08:38:26;4.30;99.90
1948;DHT22;974;52.400;9.818;2022-12-07T08:40:56;4.30;99.90
1948;DHT22;974;52.400;9.818;2022-12-07T08:43:22;4.30;99.90
1948;DHT22;974;52.400;9.818;2022-12-07T08:46:21;4.30;99.90
1948;DHT22;974;52.400;9.818;2022-12-07T08:48:55;4.00;99.90
1948;DHT22;974;52.400;9.818;2022-12-07T08:51:22;4.20;99.90
1948;DHT22;974;52.400;9.818;2022-12-07T08:53:49;4.20;99.90
1948;DHT22;974;52.400;9.818;2022-12-07T08:56:15;4.30;99.90
1948;DHT22;974;52.400;9.818;2022-12-07T08:58:41;4.20;99.90
1948;DHT22;974;52.400;9.818;2022-12-07T09:01:07;4.20;99.90
1948;DHT22;974;52.400;9.818;2022-12-07T09:03:32;4.80;99.90
1948;DHT22;974;52.400;9.818;2022-12-07T09:05:58;4.40;99.90
1948;DHT22;974;52.400;9.818;2022-12-07T09:08:29;4.40;99.90
1948;DHT22;974;52.400;9.818;2022-12-07T09:10:56;4.40;99.90
1948;DHT22;974;52.400;9.818;2022-12-07T09:13:21;4.40;99.90
1948;DHT22;974;52.400;9.818;2022-12-07T09:15:47;4.30;99.90
1948;DHT22;974;52.400;9.818;2022-12-07T09:18:13;4.30;99.90
1948;DHT22;974;52.400;9.818;2022-12-07T09:20:38;4.30;99.90
1948;DHT22;974;52.400;9.818;2022-12-07T09:23:06;4.30;99.90
1948;DHT22;974;52.400;9.818;2022-12-07T09:25:33;4.30;99.90
1948;DHT22;974;52.400;9.818;2022-12-07T09:27:58;4.30;99.90
1948;DHT22;974;52.400;9.818;2022-12-07T09:30:25;4.30;99.90
1948;DHT22;974;52.400;9.818;2022-12-07T09:32:53;4.30;99.90
1948;DHT22;974;52.400;9.818;2022-12-07T09:35:18;4.30;99.90
1948;DHT22;974;52.400;9.818;2022-12-07T09:37:44;4.40;99.90
1948;DHT22;974;52.400;9.818;2022-12-07T09:40:10;4.40;99.90
1948;DHT22;974;52.400;9.818;2022-12-07T09:42:38;4.30;99.90
1948;DHT22;974;52.400;9.818;2022-12-07T09:45:18;4.30;99.90
1948;DHT22;974;52.400;9.818;2022-12-07T09:47:45;4.40;99.90
1948;DHT22;974;52.400;9.818;2022-12-07T09:50:23;4.40;99.90
1948;DHT22;974;52.400;9.818;2022-12-07T09:52:49;4.60;99.90
1948;DHT22;974;52.400;9.818;2022-12-07T09:55:21;4.70;99.90
1948;DHT22;974;52.400;9.818;2022-12-07T09:57:48;4.50;99.90
1948;DHT22;974;52.400;9.818;2022-12-07T10:00:16;4.70;99.90
1948;DHT22;974;52.400;9.818;2022-12-07T10:03:02;4.60;99.90
1948;DHT22;974;52.400;9.818;2022-12-07T10:05:34;4.60;99.90
1948;DHT22;974;52.400;9.818;2022-12-07T10:08:01;4.50;99.90
1948;DHT22;974;52.400;9.818;2022-12-07T10:10:32;4.50;99.90
1948;DHT22;974;52.400;9.818;2022-12-07T10:13:03;4.70;99.90
1948;DHT22;974;52.400;9.818;2022-12-07T10:18:28;4.90;99.90
1948;DHT22;974;52.400;9.818;2022-12-07T10:21:03;4.90;99.90
1948;DHT22;974;52.400;9.818;2022-12-07T10:23:29;4.90;99.90
1948;DHT22;974;52.400;9.818;2022-12-07T10:25:54;5.10;99.90
1948;DHT22;974;52.400;9.818;2022-12-07T10:28:21;5.20;99.90
1948;DHT22;974;52.400;9.818;2022-12-07T10:30:48;5.10;99.90
1948;DHT22;974;52.400;9.818;2022-12-07T10:33:36;5.20;99.90
1948;DHT22;974;52.400;9.818;2022-12-07T10:38:53;5.00;99.90
1948;DHT22;974;52.400;9.818;2022-12-07T10:41:23;5.10;99.90
1948;DHT22;974;52.400;9.818;2022-12-07T10:43:51;5.10;99.90
1948;DHT22;974;52.400;9.818;2022-12-07T10:46:44;5.20;99.90
1948;DHT22;974;52.400;9.818;2022-12-07T11:00:46;5.00;99.90
1948;DHT22;974;52.400;9.818;2022-12-07T11:14:44;5.20;99.90
1948;DHT22;974;52.400;9.818;2022-12-07T11:17:18;5.10;99.90
1948;DHT22;974;52.400;9.818;2022-12-07T11:25:32;5.00;99.90
1948;DHT22;974;52.400;9.818;2022-12-07T11:30:38;4.70;99.90
1948;DHT22;974;52.400;9.818;2022-12-07T11:33:15;4.60;99.90
1948;DHT22;974;52.400;9.818;2022-12-07T11:38:30;4.50;99.90
1948;DHT22;974;52.400;9.818;2022-12-07T11:41:02;4.60;99.90
1948;DHT22;974;52.400;9.818;2022-12-07T11:46:50;4.60;99.90
1948;DHT22;974;52.400;9.818;2022-12-07T11:49:53;4.50;99.90
1948;DHT22;974;52.400;9.818;2022-12-07T11:52:30;4.50;99.90
1948;DHT22;974;52.400;9.818;2022-12-07T11:54:58;4.50;99.90
1948;DHT22;974;52.400;9.818;2022-12-07T11:57:35;4.40;99.90
1948;DHT22;974;52.400;9.818;2022-12-07T12:00:08;4.60;99.90
1948;DHT22;974;52.400;9.818;2022-12-07T12:02:43;4.80;99.90
1948;DHT22;974;52.400;9.818;2022-12-07T12:05:18;4.80;99.90
1948;DHT22;974;52.400;9.818;2022-12-07T12:07:46;4.80;99.90
1948;DHT22;974;52.400;9.818;2022-12-07T12:10:36;4.80;99.90
1948;DHT22;974;52.400;9.818;2022-12-07T12:18:57;5.50;99.90
1948;DHT22;974;52.400;9.818;2022-12-07T12:21:29;5.30;99.90
1948;DHT22;974;52.400;9.818;2022-12-07T12:24:02;5.50;99.90
1948;DHT22;974;52.400;9.818;2022-12-07T12:26:33;5.40;99.90
1948;DHT22;974;52.400;9.818;2022-12-07T12:29:24;5.30;99.90
1948;DHT22;974;52.400;9.818;2022-12-07T12:32:17;5.40;99.90
1948;DHT22;974;52.400;9.818;2022-12-07T12:35:17;5.30;99.90
1948;DHT22;974;52.400;9.818;2022-12-07T12:37:46;5.20;99.90
1948;DHT22;974;52.400;9.818;2022-12-07T12:42:54;5.10;99.90
1948;DHT22;974;52.400;9.818;2022-12-07T12:45:24;5.10;99.90
1948;DHT22;974;52.400;9.818;2022-12-07T12:48:03;5.10;99.90
1948;DHT22;974;52.400;9.818;2022-12-07T12:50:35;5.20;99.90
1948;DHT22;974;52.400;9.818;2022-12-07T13:00:46;5.20;99.90
1948;DHT22;974;52.400;9.818;2022-12-07T13:03:29;5.20;99.90
1948;DHT22;974;52.400;9.818;2022-12-07T13:06:18;5.10;99.90
1948;DHT22;974;52.400;9.818;2022-12-07T13:08:45;5.10;99.90
1948;DHT22;974;52.400;9.818;2022-12-07T13:11:25;5.20;99.90
1948;DHT22;974;52.400;9.818;2022-12-07T13:16:58;5.00;99.90
1948;DHT22;974;52.400;9.818;2022-12-07T13:24:57;5.10;99.90
1948;DHT22;974;52.400;9.818;2022-12-07T13:27:25;5.10;99.90
1948;DHT22;974;52.400;9.818;2022-12-07T13:29:52;5.20;99.90
1948;DHT22;974;52.400;9.818;2022-12-07T13:32:24;4.90;99.90
1948;DHT22;974;52.400;9.818;2022-12-07T13:34:50;5.00;99.90
1948;DHT22;974;52.400;9.818;2022-12-07T13:37:27;5.00;99.90
1948;DHT22;974;52.400;9.818;2022-12-07T13:39:56;4.90;99.90
1948;DHT22;974;52.400;9.818;2022-12-07T13:42:33;5.00;99.90
1948;DHT22;974;52.400;9.818;2022-12-07T13:45:00;4.90;99.90
1948;DHT22;974;52.400;9.818;2022-12-07T13:47:52;5.00;99.90
1948;DHT22;974;52.400;9.818;2022-12-07T13:50:25;5.10;99.90
1948;DHT22;974;52.400;9.818;2022-12-07T13:52:55;4.80;99.90
1948;DHT22;974;52.400;9.818;2022-12-07T13:55:21;4.80;99.90
1948;DHT22;974;52.400;9.818;2022-12-07T13:57:51;4.90;99.90
1948;DHT22;974;52.400;9.818;2022-12-07T14:00:23;5.00;99.90
1948;DHT22;974;52.400;9.818;2022-12-07T14:03:04;5.00;99.90
1948;DHT22;974;52.400;9.818;2022-12-07T14:05:34;5.00;99.90
1948;DHT22;974;52.400;9.818;2022-12-07T14:13:31;5.00;99.90
1948;DHT22;974;52.400;9.818;2022-12-07T14:15:58;5.10;99.90
1948;DHT22;974;52.400;9.818;2022-12-07T14:23:38;4.80;99.90
1948;DHT22;974;52.400;9.818;2022-12-07T14:28:36;4.90;99.90
1948;DHT22;974;52.400;9.818;2022-12-07T14:31:03;5.00;99.90
1948;DHT22;974;52.400;9.818;2022-12-07T14:33:29;5.00;99.90
1948;DHT22;974;52.400;9.818;2022-12-07T14:35:55;5.00;99.90
1948;DHT22;974;52.400;9.818;2022-12-07T14:38:23;4.90;99.90
1948;DHT22;974;52.400;9.818;2022-12-07T14:40:51;5.00;99.90
1948;DHT22;974;52.400;9.818;2022-12-07T14:43:18;5.00;99.90
1948;DHT22;974;52.400;9.818;2022-12-07T14:45:45;5.00;99.90
1948;DHT22;974;52.400;9.818;2022-12-07T14:48:12;4.90;99.90
1948;DHT22;974;52.400;9.818;2022-12-07T14:50:44;5.00;99.90
1948;DHT22;974;52.400;9.818;2022-12-07T14:53:14;4.90;99.90
1948;DHT22;974;52.400;9.818;2022-12-07T14:55:40;4.80;99.90
1948;DHT22;974;52.400;9.818;2022-12-07T14:58:06;4.80;99.90
1948;DHT22;974;52.400;9.818;2022-12-07T15:00:33;4.70;99.90
1948;DHT22;974;52.400;9.818;2022-12-07T15:02:59;4.80;99.90
1948;DHT22;974;52.400;9.818;2022-12-07T15:05:25;4.80;99.90
1948;DHT22;974;52.400;9.818;2022-12-07T15:07:51;4.70;99.90
1948;DHT22;974;52.400;9.818;2022-12-07T15:10:30;4.70;99.90
1948;DHT22;974;52.400;9.818;2022-12-07T15:13:01;4.70;99.90
1948;DHT22;974;52.400;9.818;2022-12-07T15:15:47;4.60;99.90
1948;DHT22;974;52.400;9.818;2022-12-07T15:18:13;4.60;99.90
1948;DHT22;974;52.400;9.818;2022-12-07T15:20:39;4.60;99.90
1948;DHT22;974;52.400;9.818;2022-12-07T15:23:05;4.70;99.90
1948;DHT22;974;52.400;9.818;2022-12-07T15:25:30;4.60;99.90
1948;DHT22;974;52.400;9.818;2022-12-07T15:27:56;4.70;99.90
1948;DHT22;974;52.400;9.818;2022-12-07T15:30:21;4.60;99.90
1948;DHT22;974;52.400;9.818;2022-12-07T15:32:53;4.60;99.90
1948;DHT22;974;52.400;9.818;2022-12-07T15:35:19;4.70;99.90
1948;DHT22;974;52.400;9.818;2022-12-07T15:37:45;4.60;99.90
1948;DHT22;974;52.400;9.818;2022-12-07T15:40:12;4.70;99.90
1948;DHT22;974;52.400;9.818;2022-12-07T15:42:38;4.60;99.90
1948;DHT22;974;52.400;9.818;2022-12-07T15:45:05;4.40;99.90
1948;DHT22;974;52.400;9.818;2022-12-07T15:47:39;4.50;99.90
1948;DHT22;974;52.400;9.818;2022-12-07T15:50:07;4.60;99.90
1948;DHT22;974;52.400;9.818;2022-12-07T15:52:33;4.50;99.90
1948;DHT22;974;52.400;9.818;2022-12-07T15:54:59;4.50;99.90
1948;DHT22;974;52.400;9.818;2022-12-07T15:57:31;4.40;99.90
1948;DHT22;974;52.400;9.818;2022-12-07T15:59:57;4.50;99.90
1948;DHT22;974;52.400;9.818;2022-12-07T16:02:22;4.50;99.90
1948;DHT22;974;52.400;9.818;2022-12-07T16:04:49;4.40;99.90
1948;DHT22;974;52.400;9.818;2022-12-07T16:07:15;4.40;99.90
1948;DHT22;974;52.400;9.818;2022-12-07T16:09:42;4.50;99.90
1948;DHT22;974;52.400;9.818;2022-12-07T16:12:08;4.50;99.90
1948;DHT22;974;52.400;9.818;2022-12-07T16:14:34;4.50;99.90
1948;DHT22;974;52.400;9.818;2022-12-07T16:16:59;4.50;99.90
1948;DHT22;974;52.400;9.818;2022-12-07T16:19:25;4.60;99.90
1948;DHT22;974;52.400;9.818;2022-12-07T16:21:51;4.50;99.90
1948;DHT22;974;52.400;9.818;2022-12-07T16:24:17;4.50;99.90
1948;DHT22;974;52.400;9.818;2022-12-07T16:26:43;4.40;99.90
1948;DHT22;974;52.400;9.818;2022-12-07T16:29:13;4.40;99.90
1948;DHT22;974;52.400;9.818;2022-12-07T16:31:39;4.50;99.90
1948;DHT22;974;52.400;9.818;2022-12-07T16:34:05;4.50;99.90
1948;DHT22;974;52.400;9.818;2022-12-07T16:36:31;4.60;99.90
1948;DHT22;974;52.400;9.818;2022-12-07T16:38:58;4.60;99.90
1948;DHT22;974;52.400;9.818;2022-12-07T16:41:24;4.60;99.90
1948;DHT22;974;52.400;9.818;2022-12-07T16:43:49;4.60;99.90
1948;DHT22;974;52.400;9.818;2022-12-07T16:46:15;4.60;99.90
1948;DHT22;974;52.400;9.818;2022-12-07T16:48:41;4.50;99.90
1948;DHT22;974;52.400;9.818;2022-12-07T16:51:08;4.40;99.90
1948;DHT22;974;52.400;9.818;2022-12-07T16:53:35;4.60;99.90
1948;DHT22;974;52.400;9.818;2022-12-07T16:56:01;4.50;99.90
1948;DHT22;974;52.400;9.818;2022-12-07T16:58:27;4.60;99.90
1948;DHT22;974;52.400;9.818;2022-12-07T17:00:53;4.70;99.90
1948;DHT22;974;52.400;9.818;2022-12-07T17:03:18;4.60;99.90
1948;DHT22;974;52.400;9.818;2022-12-07T17:05:45;4.60;99.90
1948;DHT22;974;52.400;9.818;2022-12-07T17:08:12;4.70;99.90
1948;DHT22;974;52.400;9.818;2022-12-07T17:10:40;4.70;99.90
1948;DHT22;974;52.400;9.818;2022-12-07T17:13:06;4.70;99.90
1948;DHT22;974;52.400;9.818;2022-12-07T17:15:59;4.60;99.90
1948;DHT22;974;52.400;9.818;2022-12-07T17:18:27;4.70;99.90
1948;DHT22;974;52.400;9.818;2022-12-07T17:20:53;4.70;99.90
1948;DHT22;974;52.400;9.818;2022-12-07T17:23:19;4.70;99.90
1948;DHT22;974;52.400;9.818;2022-12-07T17:25:45;4.80;99.90
1948;DHT22;974;52.400;9.818;2022-12-07T17:28:11;4.80;99.90
1948;DHT22;974;52.400;9.818;2022-12-07T17:30:38;4.70;99.90
1948;DHT22;974;52.400;9.818;2022-12-07T17:33:03;4.60;99.90
1948;DHT22;974;52.400;9.818;2022-12-07T17:35:29;4.60;99.90
1948;DHT22;974;52.400;9.818;2022-12-07T17:37:54;4.40;99.90
1948;DHT22;974;52.400;9.818;2022-12-07T17:40:21;4.30;99.90
1948;DHT22;974;52.400;9.818;2022-12-07T17:42:47;4.30;99.90
1948;DHT22;974;52.400;9.818;2022-12-07T17:45:16;4.10;99.90
1948;DHT22;974;52.400;9.818;2022-12-07T17:47:42;4.10;99.90
1948;DHT22;974;52.400;9.818;2022-12-07T17:50:08;3.80;99.90
1948;DHT22;974;52.400;9.818;2022-12-07T17:52:37;3.80;99.90
1948;DHT22;974;52.400;9.818;2022-12-07T17:55:22;3.80;99.90
1948;DHT22;974;52.400;9.818;2022-12-07T17:57:48;3.70;99.90
1948;DHT22;974;52.400;9.818;2022-12-07T18:00:14;3.70;99.90
1948;DHT22;974;52.400;9.818;2022-12-07T18:02:39;3.70;99.90
1948;DHT22;974;52.400;9.818;2022-12-07T18:05:05;3.70;99.90
1948;DHT22;974;52.400;9.818;2022-12-07T18:07:31;3.70;99.90
1948;DHT22;974;52.400;9.818;2022-12-07T18:09:56;3.60;99.90
1948;DHT22;974;52.400;9.818;2022-12-07T18:12:22;3.60;99.90
1948;DHT22;974;52.400;9.818;2022-12-07T18:14:48;3.70;99.90
1948;DHT22;974;52.400;9.818;2022-12-07T18:17:16;3.70;99.90
1948;DHT22;974;52.400;9.818;2022-12-07T18:19:41;3.60;99.90
1948;DHT22;974;52.400;9.818;2022-12-07T18:22:07;3.60;99.90
1948;DHT22;974;52.400;9.818;2022-12-07T18:24:33;3.70;99.90
1948;DHT22;974;52.400;9.818;2022-12-07T18:26:58;3.70;99.90
1948;DHT22;974;52.400;9.818;2022-12-07T18:29:24;3.70;99.90
1948;DHT22;974;52.400;9.818;2022-12-07T18:31:50;3.70;99.90
1948;DHT22;974;52.400;9.818;2022-12-07T18:34:17;3.80;99.90
1948;DHT22;974;52.400;9.818;2022-12-07T18:36:45;3.90;99.90
1948;DHT22;974;52.400;9.818;2022-12-07T18:39:12;3.90;99.90
1948;DHT22;974;52.400;9.818;2022-12-07T18:41:38;3.90;99.90
1948;DHT22;974;52.400;9.818;2022-12-07T18:44:04;4.00;99.90
1948;DHT22;974;52.400;9.818;2022-12-07T18:46:31;4.00;99.90